Time;durP1;ratioP1;P1;durP2;ratioP2;P2;SDS_P1;SDS_P2;PMS_P1;PMS_P2;Temp;Humidity;BMP_temperature;BMP_pressure;BME280_temperature;BME280_humidity;BME280_pressure;Samples;Min_cycle;Max_cycle;Signal;HPM_P1;HPM_P2
2023/05/27 00:01:57;;;;;;;6.82;4.32;;;18.80;99.90;;;;;;5051728;28;20368;-74
2023/05/27 00:04:23;;;;;;;5.95;3.72;;;18.80;99.90;;;;;;5052410;28;20442;-74
2023/05/27 00:06:50;;;;;;;5.03;4.05;;;18.80;99.90;;;;;;5051901;28;20238;-75
2023/05/27 00:09:17;;;;;;;8.65;4.03;;;18.70;99.90;;;;;;5052337;28;20210;-71
2023/05/27 00:11:44;;;;;;;7.95;4.40;;;18.70;99.90;;;;;;5051803;28;20214;-74
2023/05/27 00:14:13;;;;;;;9.05;4.90;;;18.70;99.90;;;;;;5051761;28;20234;-75
2023/05/27 00:16:40;;;;;;;9.25;4.07;;;18.70;99.90;;;;;;5051650;28;20211;-75
2023/05/27 00:19:07;;;;;;;5.20;4.13;;;18.60;99.90;;;;;;5051749;28;20585;-71
2023/05/27 00:21:34;;;;;;;6.25;3.75;;;18.60;99.90;;;;;;5051859;28;20238;-75
2023/05/27 00:24:01;;;;;;;12.27;4.63;;;18.50;99.90;;;;;;5052377;28;20210;-75
2023/05/27 00:26:28;;;;;;;8.82;5.35;;;18.50;99.90;;;;;;5052174;28;20280;-75
2023/05/27 00:28:55;;;;;;;7.65;4.18;;;18.50;99.90;;;;;;5051457;28;20249;-76
2023/05/27 00:31:23;;;;;;;9.20;4.18;;;18.50;99.90;;;;;;5037617;28;20284;-71
2023/05/27 00:33:50;;;;;;;5.75;4.30;;;18.40;99.90;;;;;;5051668;28;20246;-73
2023/05/27 00:36:18;;;;;;;7.50;3.90;;;18.40;99.90;;;;;;5051678;28;20630;-77
2023/05/27 00:38:44;;;;;;;4.97;4.07;;;18.40;99.90;;;;;;5051338;28;20749;-78
2023/05/27 00:41:12;;;;;;;7.25;4.03;;;18.40;99.90;;;;;;5051316;28;20262;-80
2023/05/27 00:43:39;;;;;;;7.57;5.93;;;18.30;99.90;;;;;;5051031;28;20222;-78
2023/05/27 00:46:06;;;;;;;7.78;5.20;;;18.30;99.90;;;;;;5051669;28;20238;-77
2023/05/27 00:48:35;;;;;;;4.57;3.70;;;18.30;99.90;;;;;;5051505;28;20209;-72
2023/05/27 00:51:02;;;;;;;14.98;5.35;;;18.30;99.90;;;;;;5052212;28;20235;-76
2023/05/27 00:53:31;;;;;;;5.70;4.35;;;18.20;99.90;;;;;;5052228;28;20207;-74
2023/05/27 00:55:59;;;;;;;7.18;4.10;;;18.20;99.90;;;;;;5051614;28;20242;-75
2023/05/27 00:58:27;;;;;;;6.00;3.75;;;18.20;99.90;;;;;;5051414;28;20246;-74
2023/05/27 01:00:54;;;;;;;4.95;3.90;;;18.10;99.90;;;;;;5051151;28;20280;-72
2023/05/27 01:03:21;;;;;;;6.30;4.38;;;18.10;99.90;;;;;;5051268;28;20211;-77
2023/05/27 01:05:52;;;;;;;5.68;4.25;;;17.90;99.90;;;;;;5050874;28;20227;-75
2023/05/27 01:08:27;;;;;;;7.30;4.25;;;17.90;99.90;;;;;;5051146;28;20242;-74
2023/05/27 01:10:55;;;;;;;4.97;4.00;;;17.90;99.90;;;;;;5050878;28;20237;-72
2023/05/27 01:13:33;;;;;;;5.60;4.43;;;17.90;99.90;;;;;;5051097;28;20209;-73
2023/05/27 01:16:01;;;;;;;7.50;4.63;;;17.80;99.90;;;;;;5050810;28;20238;-74
2023/05/27 01:18:30;;;;;;;6.20;4.45;;;17.80;99.90;;;;;;5051142;28;20210;-76
2023/05/27 01:21:06;;;;;;;6.38;4.15;;;17.90;99.90;;;;;;5050146;28;20242;-80
2023/05/27 01:23:38;;;;;;;8.30;4.30;;;17.90;99.90;;;;;;5051365;28;20210;-72
2023/05/27 01:26:05;;;;;;;9.15;5.00;;;17.80;99.90;;;;;;5051164;28;20214;-73
2023/05/27 01:28:32;;;;;;;8.25;4.78;;;17.70;99.90;;;;;;5051244;28;20231;-80
2023/05/27 01:31:11;;;;;;;5.63;4.10;;;17.60;99.90;;;;;;5050790;28;20213;-80
2023/05/27 01:33:41;;;;;;;7.57;4.22;;;17.60;99.90;;;;;;5050650;28;20233;-80
2023/05/27 01:36:12;;;;;;;7.25;5.85;;;17.60;99.90;;;;;;5050875;28;20305;-79
2023/05/27 01:38:43;;;;;;;9.27;5.50;;;17.50;99.90;;;;;;5050178;28;20231;-77
2023/05/27 01:41:11;;;;;;;7.75;3.97;;;17.50;99.90;;;;;;5038333;28;20273;-77
2023/05/27 01:43:39;;;;;;;5.70;3.80;;;17.50;99.90;;;;;;5030466;28;20243;-79
2023/05/27 01:46:07;;;;;;;9.13;4.68;;;17.50;99.90;;;;;;5036405;28;20199;-75
2023/05/27 01:48:34;;;;;;;6.15;4.47;;;17.50;99.90;;;;;;5047736;28;20231;-75
2023/05/27 01:51:01;;;;;;;6.35;5.05;;;17.50;99.90;;;;;;5039808;28;20218;-78
2023/05/27 01:53:28;;;;;;;10.30;4.70;;;17.40;99.90;;;;;;5050662;28;20214;-76
2023/05/27 01:55:56;;;;;;;5.65;4.35;;;17.30;99.90;;;;;;5049929;28;20662;-73
2023/05/27 01:58:23;;;;;;;6.22;3.97;;;17.30;99.90;;;;;;5036526;28;20254;-75
2023/05/27 02:00:50;;;;;;;7.00;4.63;;;17.30;99.90;;;;;;5049736;28;20605;-73
2023/05/27 02:03:17;;;;;;;11.13;5.60;;;17.30;99.90;;;;;;5050279;28;20301;-76
2023/05/27 02:05:45;;;;;;;7.88;4.32;;;17.30;99.90;;;;;;5049843;28;20245;-72
2023/05/27 02:08:12;;;;;;;12.65;6.47;;;17.30;99.90;;;;;;5050389;28;20367;-72
2023/05/27 02:10:39;;;;;;;7.40;5.13;;;17.30;99.90;;;;;;5049360;28;20242;-69
2023/05/27 02:13:07;;;;;;;10.20;5.10;;;17.30;99.90;;;;;;5050484;28;20300;-71
2023/05/27 02:15:34;;;;;;;7.72;4.80;;;17.20;99.90;;;;;;5035935;28;20243;-72
2023/05/27 02:18:01;;;;;;;9.32;5.00;;;17.20;99.90;;;;;;5050609;28;20218;-73
2023/05/27 02:20:29;;;;;;;6.82;4.68;;;17.10;99.90;;;;;;5050236;28;20230;-73
2023/05/27 02:22:55;;;;;;;9.00;5.10;;;17.10;99.90;;;;;;5049650;28;20803;-76
2023/05/27 02:25:22;;;;;;;5.80;4.88;;;17.10;99.90;;;;;;5049980;28;20748;-77
2023/05/27 02:27:52;;;;;;;7.35;4.70;;;17.00;99.90;;;;;;5049417;28;20237;-73
2023/05/27 02:30:20;;;;;;;11.43;6.40;;;17.00;99.90;;;;;;5050286;28;20211;-72
2023/05/27 02:32:47;;;;;;;6.60;5.07;;;17.00;99.90;;;;;;5049591;28;20698;-75
2023/05/27 02:35:15;;;;;;;11.05;5.45;;;16.90;99.90;;;;;;5050203;28;20238;-75
2023/05/27 02:37:42;;;;;;;7.60;4.93;;;16.80;99.90;;;;;;5049570;28;20285;-76
2023/05/27 02:40:10;;;;;;;15.13;5.05;;;16.90;99.90;;;;;;5049976;28;20678;-78
2023/05/27 02:42:37;;;;;;;6.53;5.20;;;16.90;99.90;;;;;;5050055;28;20597;-81
2023/05/27 02:45:05;;;;;;;6.50;4.90;;;16.90;99.90;;;;;;5050280;28;20235;-74
2023/05/27 02:47:34;;;;;;;11.68;6.47;;;16.90;99.90;;;;;;5050951;28;20281;-75
2023/05/27 02:50:00;;;;;;;5.78;5.07;;;16.80;99.90;;;;;;5036065;28;20207;-71
2023/05/27 02:52:27;;;;;;;8.63;5.00;;;16.80;99.90;;;;;;5050069;28;20230;-75
2023/05/27 02:54:54;;;;;;;7.75;5.22;;;16.70;99.90;;;;;;5051318;28;20257;-80
2023/05/27 02:57:21;;;;;;;8.90;4.95;;;16.70;99.90;;;;;;5054034;28;20203;-80
2023/05/27 02:59:48;;;;;;;7.30;4.90;;;16.60;99.90;;;;;;5053560;28;20257;-77
2023/05/27 03:02:15;;;;;;;7.22;4.82;;;16.60;99.90;;;;;;5059501;28;20269;-79
2023/05/27 03:04:43;;;;;;;11.63;5.30;;;16.60;99.90;;;;;;5061130;28;20265;-75
2023/05/27 03:07:10;;;;;;;8.93;5.18;;;16.70;99.90;;;;;;5053362;28;20235;-77
2023/05/27 03:09:37;;;;;;;7.85;4.57;;;16.60;99.90;;;;;;5053016;28;20246;-80
2023/05/27 03:12:05;;;;;;;6.38;5.05;;;16.50;99.90;;;;;;5053416;28;20643;-78
2023/05/27 03:14:32;;;;;;;8.10;5.07;;;16.50;99.90;;;;;;5053868;28;20207;-75
2023/05/27 03:16:59;;;;;;;7.70;4.85;;;16.60;99.90;;;;;;5053217;28;20234;-72
2023/05/27 03:19:26;;;;;;;4.80;4.40;;;16.60;99.90;;;;;;5053167;28;20260;-76
2023/05/27 03:21:54;;;;;;;7.75;4.38;;;16.60;99.90;;;;;;5053018;28;20704;-80
2023/05/27 03:24:21;;;;;;;7.00;4.18;;;16.60;99.90;;;;;;5052970;28;20202;-74
2023/05/27 03:26:48;;;;;;;11.55;5.18;;;16.60;99.90;;;;;;5052955;28;20265;-76
2023/05/27 03:29:16;;;;;;;7.80;4.45;;;16.60;99.90;;;;;;5052944;28;20234;-76
2023/05/27 03:31:43;;;;;;;7.40;4.55;;;16.60;99.90;;;;;;5052594;28;20211;-78
2023/05/27 03:34:10;;;;;;;6.20;5.03;;;16.60;99.90;;;;;;5052643;28;20249;-76
2023/05/27 03:36:38;;;;;;;5.97;4.93;;;16.60;99.90;;;;;;5052613;28;20725;-75
2023/05/27 03:39:06;;;;;;;6.68;4.68;;;16.40;99.90;;;;;;5052747;28;20211;-77
2023/05/27 03:41:33;;;;;;;7.43;5.20;;;16.40;99.90;;;;;;5052700;28;20233;-76
2023/05/27 03:44:00;;;;;;;6.43;4.55;;;16.50;99.90;;;;;;5052558;28;20628;-76
2023/05/27 03:46:27;;;;;;;9.93;5.35;;;16.40;99.90;;;;;;5052493;28;20238;-71
2023/05/27 03:48:54;;;;;;;9.25;3.95;;;16.50;99.90;;;;;;5044130;28;20679;-70
2023/05/27 03:51:22;;;;;;;6.63;4.82;;;16.50;99.90;;;;;;5046828;28;20253;-71
2023/05/27 03:53:49;;;;;;;6.57;5.20;;;16.50;99.90;;;;;;5052189;28;20206;-76
2023/05/27 03:56:17;;;;;;;5.60;5.07;;;16.40;99.90;;;;;;5052713;28;20234;-73
2023/05/27 03:58:44;;;;;;;8.10;5.13;;;16.30;99.90;;;;;;5052038;28;20242;-72
2023/05/27 04:01:11;;;;;;;7.28;5.07;;;16.30;99.90;;;;;;5052173;28;20261;-77
2023/05/27 04:03:39;;;;;;;9.02;5.47;;;16.20;99.90;;;;;;5051632;28;20297;-74
2023/05/27 04:06:07;;;;;;;6.68;5.90;;;16.10;99.90;;;;;;5051858;28;20214;-76
2023/05/27 04:08:35;;;;;;;7.07;5.55;;;16.00;99.90;;;;;;5051794;28;20210;-76
2023/05/27 04:11:02;;;;;;;8.05;5.13;;;16.00;99.90;;;;;;5052772;28;20221;-75
2023/05/27 04:13:31;;;;;;;6.32;5.03;;;15.90;99.90;;;;;;5052368;28;20238;-78
2023/05/27 04:15:59;;;;;;;9.05;5.65;;;15.80;99.90;;;;;;5051901;28;20245;-80
2023/05/27 04:18:26;;;;;;;9.18;5.57;;;16.00;99.90;;;;;;5051970;28;20732;-74
2023/05/27 04:20:53;;;;;;;6.40;4.82;;;16.00;99.90;;;;;;5048254;28;20221;-75
2023/05/27 04:23:20;;;;;;;5.97;5.45;;;16.10;99.90;;;;;;5051246;28;20739;-72
2023/05/27 04:25:48;;;;;;;5.88;5.25;;;16.10;99.90;;;;;;5051521;28;20199;-74
2023/05/27 04:28:16;;;;;;;8.07;6.47;;;16.10;99.90;;;;;;5051496;28;20199;-70
2023/05/27 04:30:47;;;;;;;6.38;5.55;;;16.00;99.90;;;;;;5052036;28;20213;-76
2023/05/27 04:33:15;;;;;;;10.25;5.43;;;15.90;99.90;;;;;;5051584;28;20203;-76
2023/05/27 04:35:43;;;;;;;12.75;6.13;;;15.90;99.90;;;;;;5051046;28;20233;-69
2023/05/27 04:38:15;;;;;;;7.95;5.85;;;15.90;99.90;;;;;;5051351;28;20245;-73
2023/05/27 04:40:44;;;;;;;7.85;5.63;;;15.90;99.90;;;;;;5041096;28;20199;-72
2023/05/27 04:43:14;;;;;;;5.97;5.20;;;15.80;99.90;;;;;;5051504;28;20266;-71
2023/05/27 04:45:41;;;;;;;7.22;5.43;;;15.80;99.90;;;;;;5051309;28;20297;-75
2023/05/27 04:48:10;;;;;;;8.02;4.00;;;15.80;99.90;;;;;;5049720;28;20582;-72
2023/05/27 04:50:37;;;;;;;8.10;4.75;;;15.90;99.90;;;;;;5039486;28;20207;-71
2023/05/27 04:53:04;;;;;;;9.55;6.28;;;15.80;99.90;;;;;;5050967;28;20245;-73
2023/05/27 04:55:32;;;;;;;7.80;6.32;;;15.60;99.90;;;;;;5051358;28;20682;-73
2023/05/27 04:58:02;;;;;;;9.95;6.15;;;15.60;99.90;;;;;;5050615;28;20705;-72
2023/05/27 05:00:38;;;;;;;7.68;5.25;;;15.60;99.90;;;;;;5051314;28;20209;-70
2023/05/27 05:03:07;;;;;;;8.45;5.30;;;15.70;99.90;;;;;;5050643;28;20234;-74
2023/05/27 05:05:35;;;;;;;14.18;6.50;;;15.60;99.90;;;;;;5050586;28;20231;-70
2023/05/27 05:08:02;;;;;;;6.22;5.03;;;15.60;99.90;;;;;;5051521;28;20308;-72
2023/05/27 05:10:30;;;;;;;7.35;6.25;;;15.60;99.90;;;;;;5050988;28;20679;-78
2023/05/27 05:12:57;;;;;;;9.77;6.05;;;15.50;99.90;;;;;;5050512;28;20210;-70
2023/05/27 05:15:24;;;;;;;7.82;5.88;;;15.60;99.90;;;;;;5046393;28;20207;-70
2023/05/27 05:17:51;;;;;;;7.18;5.72;;;15.80;99.90;;;;;;5049363;28;20697;-69
2023/05/27 05:20:18;;;;;;;10.80;5.43;;;15.80;99.90;;;;;;5051262;28;20264;-69
2023/05/27 05:22:47;;;;;;;8.20;5.95;;;15.90;99.90;;;;;;5050616;28;20674;-76
2023/05/27 05:25:14;;;;;;;7.63;5.35;;;16.00;99.90;;;;;;5050786;28;20207;-78
2023/05/27 05:27:42;;;;;;;7.70;5.60;;;16.10;99.90;;;;;;5050175;28;20233;-72
2023/05/27 05:30:09;;;;;;;13.90;6.15;;;16.20;99.90;;;;;;5050304;28;20242;-76
2023/05/27 05:32:36;;;;;;;9.32;6.45;;;16.10;99.90;;;;;;5050600;28;20242;-73
2023/05/27 05:35:04;;;;;;;7.80;5.30;;;16.10;99.90;;;;;;5050238;28;20678;-70
2023/05/27 05:37:30;;;;;;;12.65;5.93;;;16.30;99.90;;;;;;5050909;28;20241;-75
2023/05/27 05:39:59;;;;;;;7.05;5.22;;;16.40;99.90;;;;;;5050115;28;20256;-80
2023/05/27 05:42:26;;;;;;;6.20;4.95;;;16.40;99.90;;;;;;5050337;28;20757;-75
2023/05/27 05:44:53;;;;;;;8.30;6.40;;;16.50;99.90;;;;;;5040527;28;20245;-76
2023/05/27 05:47:20;;;;;;;12.45;5.90;;;16.50;99.90;;;;;;5043738;28;20238;-74
2023/05/27 05:49:47;;;;;;;10.50;6.82;;;16.60;99.90;;;;;;5036049;28;20257;-76
2023/05/27 05:52:13;;;;;;;10.85;5.63;;;16.60;99.90;;;;;;5050500;28;20253;-70
2023/05/27 05:54:41;;;;;;;8.65;7.40;;;16.50;99.90;;;;;;5049800;28;20238;-76
2023/05/27 05:57:09;;;;;;;8.63;5.70;;;16.50;99.90;;;;;;5050362;28;20245;-75
2023/05/27 05:59:36;;;;;;;7.65;5.03;;;16.60;99.90;;;;;;5049939;28;20253;-69
2023/05/27 06:02:03;;;;;;;6.68;5.10;;;16.80;99.90;;;;;;5048301;28;20788;-74
2023/05/27 06:04:30;;;;;;;9.25;6.30;;;16.90;99.90;;;;;;5050258;28;20225;-77
2023/05/27 06:06:57;;;;;;;6.82;5.47;;;17.10;99.90;;;;;;5047880;28;20284;-71
2023/05/27 06:09:24;;;;;;;8.10;5.53;;;17.10;99.90;;;;;;5049073;28;20293;-73
2023/05/27 06:11:52;;;;;;;11.07;6.03;;;17.10;99.90;;;;;;5043211;28;20661;-74
2023/05/27 06:14:22;;;;;;;11.82;5.93;;;17.20;99.90;;;;;;5050025;28;20217;-71
2023/05/27 06:16:49;;;;;;;7.38;5.90;;;17.20;99.90;;;;;;5049543;28;20211;-72
2023/05/27 06:19:16;;;;;;;10.80;6.10;;;17.20;99.90;;;;;;5049983;28;20721;-78
2023/05/27 06:21:43;;;;;;;6.97;5.32;;;17.30;99.90;;;;;;5049619;28;20707;-81
2023/05/27 06:24:09;;;;;;;11.13;6.63;;;17.40;99.90;;;;;;5050361;28;20246;-77
2023/05/27 06:26:36;;;;;;;7.63;5.80;;;17.60;99.90;;;;;;5049514;28;20252;-74
2023/05/27 06:29:03;;;;;;;13.68;7.68;;;17.60;99.90;;;;;;5050766;28;20238;-69
2023/05/27 06:31:32;;;;;;;14.60;6.75;;;17.60;99.90;;;;;;5044998;28;20207;-75
2023/05/27 06:34:00;;;;;;;6.82;5.63;;;17.60;99.90;;;;;;5052961;28;20665;-76
2023/05/27 06:36:26;;;;;;;10.52;6.00;;;17.60;99.90;;;;;;5053851;28;20217;-79
2023/05/27 06:38:54;;;;;;;10.25;5.90;;;17.70;99.90;;;;;;5048095;28;20299;-74
2023/05/27 06:41:21;;;;;;;7.28;5.70;;;17.70;99.90;;;;;;5051421;28;20629;-79
2023/05/27 06:43:48;;;;;;;10.18;6.03;;;17.80;99.90;;;;;;5051266;28;20265;-76
2023/05/27 06:46:15;;;;;;;7.68;6.65;;;17.90;99.90;;;;;;5043920;28;20206;-76
2023/05/27 06:48:43;;;;;;;8.43;6.05;;;18.10;99.90;;;;;;5051886;28;20230;-81
2023/05/27 06:51:10;;;;;;;8.10;5.60;;;18.20;99.90;;;;;;5053758;28;20207;-78
2023/05/27 06:53:37;;;;;;;7.93;5.60;;;18.20;99.90;;;;;;5053314;28;20238;-78
2023/05/27 06:56:04;;;;;;;10.38;5.47;;;18.40;99.90;;;;;;5053381;28;20719;-78
2023/05/27 06:58:31;;;;;;;7.53;5.43;;;18.80;99.90;;;;;;5053623;28;20242;-72
2023/05/27 07:00:58;;;;;;;12.00;6.32;;;18.90;99.90;;;;;;5052405;28;20724;-76
2023/05/27 07:03:25;;;;;;;8.68;6.35;;;19.00;99.90;;;;;;5048589;28;20274;-84
2023/05/27 07:05:53;;;;;;;5.65;5.00;;;19.00;99.90;;;;;;5053395;28;20246;-75
2023/05/27 07:08:20;;;;;;;10.43;5.90;;;19.10;99.90;;;;;;5052856;28;20243;-76
2023/05/27 07:10:47;;;;;;;6.50;5.82;;;19.10;99.90;;;;;;5052583;28;20634;-74
2023/05/27 07:13:15;;;;;;;7.22;6.18;;;19.30;99.90;;;;;;5053341;28;20243;-75
2023/05/27 07:15:42;;;;;;;8.63;5.82;;;19.40;99.90;;;;;;5051149;28;20245;-71
2023/05/27 07:18:09;;;;;;;8.85;5.70;;;19.50;99.90;;;;;;5053208;28;20238;-75
2023/05/27 07:20:36;;;;;;;6.63;5.72;;;19.60;99.90;;;;;;5052701;28;20311;-68
2023/05/27 07:23:04;;;;;;;8.82;5.78;;;19.60;99.90;;;;;;5041754;28;20270;-70
2023/05/27 07:25:31;;;;;;;11.38;5.95;;;19.80;99.90;;;;;;5047884;28;20203;-79
2023/05/27 07:27:58;;;;;;;8.00;5.88;;;19.90;99.90;;;;;;5052594;28;20206;-77
2023/05/27 07:30:25;;;;;;;8.27;5.85;;;19.90;99.90;;;;;;5056224;28;20234;-82
2023/05/27 07:32:52;;;;;;;12.25;7.22;;;20.10;99.90;;;;;;5052226;28;20215;-75
2023/05/27 07:35:19;;;;;;;9.27;7.07;;;20.20;99.90;;;;;;5051887;28;20242;-73
2023/05/27 07:37:46;;;;;;;8.10;5.70;;;20.20;99.90;;;;;;5050013;28;20664;-76
2023/05/27 07:40:14;;;;;;;6.40;5.38;;;20.30;99.90;;;;;;5052216;28;20242;-71
2023/05/27 07:42:41;;;;;;;10.18;6.13;;;20.40;99.90;;;;;;5052100;28;20296;-74
2023/05/27 07:45:09;;;;;;;11.68;5.90;;;20.50;99.90;;;;;;5052419;28;20210;-76
2023/05/27 07:47:36;;;;;;;16.13;6.18;;;20.60;99.90;;;;;;5052510;28;20222;-71
2023/05/27 07:50:04;;;;;;;12.13;5.35;;;20.80;99.90;;;;;;5038825;28;20234;-74
2023/05/27 07:52:31;;;;;;;9.50;5.32;;;20.80;99.90;;;;;;5052785;28;20214;-78
2023/05/27 07:54:58;;;;;;;6.82;4.75;;;20.90;99.90;;;;;;5051808;28;20595;-77
2023/05/27 07:57:26;;;;;;;6.45;4.97;;;21.10;99.90;;;;;;5052605;28;20206;-72
2023/05/27 07:59:53;;;;;;;7.03;5.15;;;21.60;99.90;;;;;;5051857;28;20245;-76
2023/05/27 08:02:21;;;;;;;7.85;5.18;;;21.70;99.90;;;;;;5051739;28;20270;-77
2023/05/27 08:04:48;;;;;;;5.75;4.97;;;21.60;99.90;;;;;;5052183;28;20234;-71
2023/05/27 08:07:15;;;;;;;9.05;5.38;;;21.60;99.90;;;;;;5052741;28;20250;-75
2023/05/27 08:09:42;;;;;;;13.18;5.55;;;21.50;99.90;;;;;;5052522;28;20253;-80
2023/05/27 08:12:09;;;;;;;10.02;5.45;;;21.60;99.90;;;;;;5052547;28;20250;-77
2023/05/27 08:14:39;;;;;;;6.03;4.72;;;21.80;99.90;;;;;;5052358;28;20207;-72
2023/05/27 08:17:06;;;;;;;8.02;5.72;;;22.00;99.90;;;;;;5046689;28;20235;-74
2023/05/27 08:19:33;;;;;;;9.95;4.68;;;22.10;99.90;;;;;;5052415;28;20207;-74
2023/05/27 08:22:01;;;;;;;8.55;5.32;;;22.20;99.90;;;;;;5052325;28;20708;-72
2023/05/27 08:24:30;;;;;;;7.78;4.88;;;22.50;99.90;;;;;;5052965;28;20207;-80
2023/05/27 08:26:57;;;;;;;8.30;5.28;;;22.50;99.90;;;;;;5051579;28;20210;-74
2023/05/27 08:29:25;;;;;;;6.25;4.22;;;22.50;99.90;;;;;;5051844;28;20249;-74
2023/05/27 08:31:54;;;;;;;9.95;4.93;;;22.70;99.90;;;;;;5052224;28;20206;-80
2023/05/27 08:34:21;;;;;;;9.35;4.65;;;22.70;99.90;;;;;;5052007;28;20234;-76
2023/05/27 08:36:48;;;;;;;6.45;4.22;;;22.90;99.90;;;;;;5051971;28;20253;-76
2023/05/27 08:39:15;;;;;;;10.10;4.80;;;23.00;99.90;;;;;;5051718;28;20238;-76
2023/05/27 08:41:42;;;;;;;9.00;4.60;;;23.30;99.90;;;;;;5051853;28;20211;-75
2023/05/27 08:44:10;;;;;;;7.47;3.67;;;23.40;99.90;;;;;;5051635;28;20802;-82
2023/05/27 08:46:37;;;;;;;5.80;4.57;;;23.70;99.90;;;;;;5051959;28;20207;-80
2023/05/27 08:49:08;;;;;;;8.13;5.05;;;24.20;99.90;;;;;;5052266;28;20202;-83
2023/05/27 08:51:38;;;;;;;5.00;4.07;;;24.30;99.90;;;;;;5050908;28;20654;-75
2023/05/27 08:54:05;;;;;;;5.97;3.28;;;24.40;99.90;;;;;;5040456;28;20207;-82
2023/05/27 08:56:34;;;;;;;5.20;4.25;;;24.50;99.90;;;;;;5051935;28;20253;-82
2023/05/27 08:59:01;;;;;;;5.53;3.53;;;24.70;99.90;;;;;;5051793;28;20211;-79
2023/05/27 09:01:28;;;;;;;5.78;3.72;;;24.90;99.90;;;;;;5052159;28;20234;-81
2023/05/27 09:03:56;;;;;;;4.28;3.20;;;25.40;99.90;;;;;;5050700;28;20702;-84
2023/05/27 09:06:24;;;;;;;6.70;3.75;;;25.90;99.90;;;;;;5050615;28;20756;-78
2023/05/27 09:08:51;;;;;;;6.43;3.83;;;26.00;99.90;;;;;;5051364;28;20246;-77
2023/05/27 09:11:23;;;;;;;4.70;3.97;;;26.20;99.90;;;;;;5051514;28;20246;-79
2023/05/27 09:13:50;;;;;;;7.78;3.95;;;25.90;99.90;;;;;;5050726;28;20246;-82
2023/05/27 09:16:22;;;;;;;5.53;3.60;;;26.00;99.90;;;;;;5051560;28;20649;-81
2023/05/27 09:18:49;;;;;;;7.43;3.70;;;26.00;99.90;;;;;;5050933;28;20238;-82
2023/05/27 09:21:17;;;;;;;6.88;3.53;;;26.30;99.90;;;;;;5050174;28;20230;-81
2023/05/27 09:23:45;;;;;;;7.18;3.72;;;26.80;99.90;;;;;;5052472;28;20241;-88
2023/05/27 09:26:13;;;;;;;9.18;4.40;;;27.60;99.90;;;;;;5064443;28;20245;-83
2023/05/27 09:28:40;;;;;;;7.03;2.95;;;29.10;99.90;;;;;;5051003;28;20687;-82
2023/05/27 09:31:09;;;;;;;5.20;3.25;;;30.30;99.90;;;;;;5050356;28;20686;-82
2023/05/27 09:33:37;;;;;;;3.95;3.63;;;31.40;99.90;;;;;;5042166;28;20254;-87
2023/05/27 09:36:05;;;;;;;8.75;3.83;;;34.50;99.90;;;;;;5040577;28;20245;-81
2023/05/27 09:38:32;;;;;;;5.88;3.60;;;36.00;99.90;;;;;;5051741;28;20266;-85
2023/05/27 09:41:01;;;;;;;4.97;3.42;;;35.60;99.90;;;;;;5050808;28;20642;-87
2023/05/27 09:43:29;;;;;;;4.93;3.63;;;37.10;99.90;;;;;;5051928;28;20230;-79
2023/05/27 09:46:01;;;;;;;5.72;4.13;;;37.30;99.90;;;;;;5049040;28;20257;-80
2023/05/27 09:48:29;;;;;;;7.97;3.95;;;35.60;99.90;;;;;;5034619;28;20225;-79
2023/05/27 09:50:57;;;;;;;4.15;3.67;;;34.60;99.90;;;;;;5041374;28;20651;-82
2023/05/27 09:53:25;;;;;;;4.78;3.95;;;37.80;99.90;;;;;;5050611;28;20548;-79
2023/05/27 09:55:53;;;;;;;5.35;4.03;;;40.00;99.90;;;;;;5050109;28;20205;-81
2023/05/27 09:58:22;;;;;;;7.80;3.60;;;39.70;99.90;;;;;;5050482;28;20225;-81
2023/05/27 10:00:50;;;;;;;5.20;3.42;;;38.80;99.90;;;;;;5050300;28;20771;-78
2023/05/27 10:03:18;;;;;;;5.30;4.25;;;38.70;99.90;;;;;;5050864;28;20355;-75
2023/05/27 10:05:46;;;;;;;5.25;3.13;;;39.20;99.90;;;;;;5056295;28;20297;-72
2023/05/27 10:08:13;;;;;;;9.00;4.07;;;36.90;99.90;;;;;;5056998;28;20204;-84
2023/05/27 10:10:41;;;;;;;4.25;3.90;;;38.60;99.90;;;;;;5056708;28;20202;-74
2023/05/27 10:13:08;;;;;;;6.93;4.25;;;38.40;99.90;;;;;;5057274;28;20237;-78
2023/05/27 10:15:36;;;;;;;7.03;4.05;;;40.20;99.90;;;;;;5055714;28;20244;-72
2023/05/27 10:18:07;;;;;;;3.95;3.55;;;38.90;99.90;;;;;;5056320;28;20240;-71
2023/05/27 10:20:37;;;;;;;8.23;3.78;;;38.10;99.90;;;;;;5057114;28;20654;-73
2023/05/27 10:23:11;;;;;;;4.47;3.00;;;39.30;99.90;;;;;;5056459;28;20232;-71
2023/05/27 10:25:39;;;;;;;7.78;3.90;;;37.80;99.90;;;;;;5055633;28;20205;-74
2023/05/27 10:28:07;;;;;;;4.00;2.78;;;40.20;99.90;;;;;;5057068;28;20243;-71
2023/05/27 10:30:46;;;;;;;3.53;3.22;;;37.40;99.90;;;;;;5056831;28;20206;-71
2023/05/27 10:33:13;;;;;;;5.88;4.32;;;32.50;99.90;;;;;;5057032;28;20279;-75
2023/05/27 10:35:42;;;;;;;7.53;4.07;;;30.40;99.90;;;;;;5056908;28;20206;-74
2023/05/27 10:38:16;;;;;;;5.45;3.42;;;29.30;99.90;;;;;;5044093;28;20216;-75
2023/05/27 10:40:44;;;;;;;4.15;3.58;;;29.20;99.90;;;;;;5056394;28;20673;-74
2023/05/27 10:43:16;;;;;;;5.47;3.47;;;29.00;99.90;;;;;;5055019;28;20586;-81
2023/05/27 10:45:45;;;;;;;5.57;3.58;;;28.60;99.90;;;;;;5053306;28;20209;-82
2023/05/27 10:48:20;;;;;;;4.20;3.38;;;28.30;99.90;;;;;;5053326;28;20256;-76
2023/05/27 10:50:54;;;;;;;5.20;3.50;;;28.30;99.90;;;;;;5050063;28;20233;-81
2023/05/27 10:53:21;;;;;;;3.78;3.38;;;28.60;99.90;;;;;;5054380;28;20202;-77
2023/05/27 10:55:50;;;;;;;4.57;4.03;;;28.40;99.90;;;;;;5055915;28;20205;-72
2023/05/27 10:58:17;;;;;;;4.47;3.95;;;28.40;99.90;;;;;;5051571;28;20207;-75
2023/05/27 11:00:49;;;;;;;5.57;3.40;;;28.70;99.90;;;;;;5054947;28;20244;-82
2023/05/27 11:03:23;;;;;;;7.38;3.33;;;28.50;99.90;;;;;;5056373;28;20234;-84
2023/05/27 11:06:04;;;;;;;8.30;5.63;;;28.60;99.90;;;;;;5056228;28;20238;-82
2023/05/27 11:08:32;;;;;;;5.90;3.78;;;28.60;99.90;;;;;;5055873;28;20641;-82
2023/05/27 11:11:00;;;;;;;8.02;6.55;;;28.40;99.90;;;;;;5056486;28;20705;-71
2023/05/27 11:13:35;;;;;;;4.03;3.00;;;28.70;99.90;;;;;;5056550;28;20728;-75
2023/05/27 11:16:06;;;;;;;4.22;3.53;;;28.60;99.90;;;;;;5053517;28;20206;-73
2023/05/27 11:18:40;;;;;;;4.38;3.67;;;28.60;99.90;;;;;;5042228;28;20238;-71
2023/05/27 11:21:08;;;;;;;5.30;3.60;;;28.40;99.90;;;;;;5053304;28;20249;-82
2023/05/27 11:23:40;;;;;;;4.88;3.30;;;28.50;99.90;;;;;;5052914;28;20321;-83
2023/05/27 11:26:13;;;;;;;5.85;3.28;;;28.40;99.90;;;;;;5047767;28;20253;-76
2023/05/27 11:28:47;;;;;;;7.40;3.85;;;28.30;99.90;;;;;;5052817;28;20209;-85
2023/05/27 11:31:16;;;;;;;5.82;3.40;;;28.60;99.90;;;;;;5053503;28;20229;-85
2023/05/27 11:33:44;;;;;;;4.78;3.15;;;28.60;99.90;;;;;;5052934;28;20234;-80
2023/05/27 11:36:13;;;;;;;3.70;3.35;;;28.30;99.90;;;;;;5053497;28;20250;-81
2023/05/27 11:38:55;;;;;;;4.43;3.55;;;28.50;99.90;;;;;;5052192;28;20239;-84
2023/05/27 11:41:25;;;;;;;4.93;4.38;;;28.60;99.90;;;;;;5052800;28;20264;-79
2023/05/27 11:43:53;;;;;;;3.63;3.28;;;28.50;99.90;;;;;;5052351;28;20222;-75
2023/05/27 11:46:22;;;;;;;4.10;3.70;;;28.80;99.90;;;;;;5053215;28;20250;-80
2023/05/27 11:48:49;;;;;;;3.88;3.33;;;28.90;99.90;;;;;;5045332;28;20250;-83
2023/05/27 11:51:16;;;;;;;5.07;3.80;;;28.80;99.90;;;;;;5046335;28;20252;-72
2023/05/27 11:53:46;;;;;;;7.63;3.85;;;28.70;99.90;;;;;;5052228;28;20226;-76
2023/05/27 11:56:13;;;;;;;7.97;4.25;;;28.60;99.90;;;;;;5052544;28;20211;-74
2023/05/27 11:58:40;;;;;;;4.90;3.35;;;28.60;99.90;;;;;;5052265;28;20230;-83
2023/05/27 12:01:07;;;;;;;6.60;3.25;;;28.70;99.90;;;;;;5052687;28;20238;-82
2023/05/27 12:03:35;;;;;;;5.68;3.42;;;28.70;99.90;;;;;;5052344;28;20265;-74
2023/05/27 12:06:03;;;;;;;3.78;3.35;;;28.80;99.90;;;;;;5052419;28;20671;-73
2023/05/27 12:08:30;;;;;;;3.92;3.08;;;28.80;99.90;;;;;;5052815;28;20686;-81
2023/05/27 12:10:57;;;;;;;4.40;3.28;;;28.60;99.90;;;;;;5052348;28;20233;-73
2023/05/27 12:13:25;;;;;;;4.90;3.65;;;28.70;99.90;;;;;;5046205;28;20230;-82
2023/05/27 12:15:53;;;;;;;2.58;2.38;;;28.80;99.90;;;;;;5040793;28;20294;-79
2023/05/27 12:18:19;;;;;;;8.90;3.45;;;28.80;99.90;;;;;;5052239;28;20681;-83
2023/05/27 12:20:48;;;;;;;4.35;2.90;;;28.80;99.90;;;;;;5044479;28;20257;-75
2023/05/27 12:23:15;;;;;;;5.57;4.22;;;29.10;99.90;;;;;;5047885;28;20239;-77
2023/05/27 12:25:42;;;;;;;7.60;3.53;;;29.10;99.90;;;;;;5050679;28;20257;-87
2023/05/27 12:28:09;;;;;;;9.02;3.65;;;29.00;99.90;;;;;;5049738;28;20284;-75
2023/05/27 12:30:37;;;;;;;4.30;3.05;;;29.10;99.90;;;;;;5048215;28;20241;-71
2023/05/27 12:33:05;;;;;;;3.20;2.90;;;29.10;99.90;;;;;;5051546;28;20670;-79
2023/05/27 12:35:32;;;;;;;4.43;3.13;;;28.70;99.90;;;;;;5059928;28;20637;-73
2023/05/27 12:38:00;;;;;;;3.30;3.03;;;28.60;99.90;;;;;;5049446;28;20245;-73
2023/05/27 12:40:28;;;;;;;3.30;2.92;;;28.80;99.90;;;;;;5049159;28;20249;-71
2023/05/27 12:42:55;;;;;;;3.50;3.15;;;29.00;99.90;;;;;;5050245;28;20242;-74
2023/05/27 12:45:24;;;;;;;3.58;2.92;;;29.10;99.90;;;;;;5050184;28;20270;-78
2023/05/27 12:47:50;;;;;;;3.28;2.72;;;29.20;99.90;;;;;;5051460;28;20203;-74
2023/05/27 12:50:17;;;;;;;6.57;3.60;;;29.20;99.90;;;;;;5037977;28;20238;-79